Time;durP1;ratioP1;P1;durP2;ratioP2;P2;SDS_P1;SDS_P2;PMS_P1;PMS_P2;Temp;Humidity;BMP_temperature;BMP_pressure;BME280_temperature;BME280_humidity;BME280_pressure;Samples;Min_cycle;Max_cycle;Signal;HPM_P1;HPM_P2
2024/01/23 00:01:10;;;;;;;15.87;9.30;;;4.40;99.90;;;;;;5034787;28;20210;-78
2024/01/23 00:03:58;;;;;;;19.77;10.37;;;4.40;99.90;;;;;;5037170;28;20250;-78
2024/01/23 00:06:45;;;;;;;18.20;9.87;;;4.40;99.90;;;;;;5047149;28;20208;-78
2024/01/23 00:09:33;;;;;;;17.00;9.63;;;4.50;99.90;;;;;;5041909;28;20214;-78
2024/01/23 00:12:21;;;;;;;17.17;9.97;;;4.50;99.90;;;;;;5054838;28;20264;-79
2024/01/23 00:15:09;;;;;;;16.97;10.10;;;4.50;99.90;;;;;;5040700;28;20264;-78
2024/01/23 00:17:56;;;;;;;19.40;9.63;;;4.50;99.90;;;;;;5054084;28;20200;-78
2024/01/23 00:20:46;;;;;;;20.37;9.87;;;4.50;99.90;;;;;;5040174;28;20819;-78
2024/01/23 00:23:34;;;;;;;17.60;9.83;;;4.50;99.90;;;;;;5055374;28;20191;-78
2024/01/23 00:26:21;;;;;;;20.60;10.23;;;4.50;99.90;;;;;;5054642;28;20223;-78
2024/01/23 00:29:09;;;;;;;18.03;9.23;;;4.60;99.90;;;;;;5039778;28;20253;-78
2024/01/23 00:31:56;;;;;;;18.47;10.07;;;4.60;99.90;;;;;;5054831;28;20187;-78
2024/01/23 00:34:44;;;;;;;19.30;9.87;;;4.60;99.90;;;;;;5039938;28;20202;-77
2024/01/23 00:37:31;;;;;;;17.43;9.73;;;4.60;99.90;;;;;;5055544;28;20191;-78
2024/01/23 00:40:19;;;;;;;20.03;9.70;;;4.50;99.90;;;;;;5053775;28;20198;-78
2024/01/23 00:43:06;;;;;;;17.37;9.90;;;4.60;99.90;;;;;;5040477;28;20260;-78
2024/01/23 00:45:53;;;;;;;17.90;10.50;;;4.50;99.90;;;;;;5038088;28;20236;-78
2024/01/23 00:48:41;;;;;;;19.23;10.33;;;4.50;99.90;;;;;;5039907;28;20675;-78
2024/01/23 00:51:29;;;;;;;18.40;10.00;;;4.60;99.90;;;;;;5039432;28;20187;-78
2024/01/23 00:54:16;;;;;;;21.10;10.43;;;4.60;99.90;;;;;;5039217;28;20198;-78
2024/01/23 00:57:05;;;;;;;19.03;10.30;;;4.50;99.90;;;;;;5039585;28;20242;-78
2024/01/23 00:59:52;;;;;;;18.97;10.27;;;4.50;99.90;;;;;;5053293;28;20580;-77
2024/01/23 01:02:40;;;;;;;19.70;10.37;;;4.60;99.90;;;;;;5039486;28;20191;-78
2024/01/23 01:05:27;;;;;;;19.77;10.67;;;4.60;99.90;;;;;;5053276;28;20632;-78
2024/01/23 01:08:15;;;;;;;17.23;10.33;;;4.50;99.90;;;;;;5053254;28;20284;-79
2024/01/23 01:11:04;;;;;;;19.53;10.30;;;4.50;99.90;;;;;;5039044;28;20195;-79
2024/01/23 01:13:52;;;;;;;18.03;9.70;;;4.50;99.90;;;;;;5038843;28;20202;-79
2024/01/23 01:16:39;;;;;;;21.47;10.33;;;4.50;99.90;;;;;;5039799;28;20199;-79
2024/01/23 01:19:26;;;;;;;20.60;9.97;;;4.50;99.90;;;;;;5052879;28;20274;-79
2024/01/23 01:22:14;;;;;;;18.17;9.83;;;4.50;99.90;;;;;;5053571;28;20215;-78
2024/01/23 01:25:02;;;;;;;18.50;10.17;;;4.50;99.90;;;;;;5055038;28;20270;-79
2024/01/23 01:27:50;;;;;;;19.20;9.93;;;4.50;99.90;;;;;;5038443;28;20303;-78
2024/01/23 01:30:37;;;;;;;17.83;9.90;;;4.50;99.90;;;;;;5039097;28;20599;-79
2024/01/23 01:33:25;;;;;;;17.53;10.00;;;4.50;99.90;;;;;;5052553;28;20655;-77
2024/01/23 01:36:13;;;;;;;17.70;10.17;;;4.50;99.90;;;;;;5053824;28;20283;-78
2024/01/23 01:39:02;;;;;;;19.67;10.03;;;4.50;99.90;;;;;;5051951;28;20248;-77
2024/01/23 01:41:56;;;;;;;18.27;9.67;;;4.50;99.90;;;;;;5052383;28;20212;-78
2024/01/23 01:44:44;;;;;;;17.30;9.73;;;4.50;99.90;;;;;;5053481;28;20203;-78
2024/01/23 01:47:32;;;;;;;23.73;10.63;;;4.50;99.90;;;;;;5052901;28;20187;-78
2024/01/23 01:50:19;;;;;;;17.70;10.40;;;4.50;99.90;;;;;;5052205;28;20695;-78
2024/01/23 01:53:07;;;;;;;15.27;8.90;;;4.60;99.90;;;;;;5052813;28;20688;-78
2024/01/23 01:55:54;;;;;;;16.73;9.47;;;4.50;99.90;;;;;;5053860;28;20316;-78
2024/01/23 01:58:45;;;;;;;18.90;9.80;;;4.50;99.90;;;;;;5038672;28;20270;-78
2024/01/23 02:01:32;;;;;;;18.50;9.60;;;4.60;99.90;;;;;;5037959;28;20229;-78
2024/01/23 02:04:19;;;;;;;19.27;10.00;;;4.60;99.90;;;;;;5053740;28;20233;-78
2024/01/23 02:07:07;;;;;;;20.23;9.37;;;4.50;99.90;;;;;;5052400;28;20202;-78
2024/01/23 02:09:55;;;;;;;16.63;9.20;;;4.50;99.90;;;;;;5052483;28;20223;-78
2024/01/23 02:12:42;;;;;;;15.83;9.13;;;4.60;99.90;;;;;;5052545;28;20220;-78
2024/01/23 02:15:30;;;;;;;17.03;9.27;;;4.60;99.90;;;;;;5038302;28;20209;-78
2024/01/23 02:18:18;;;;;;;15.97;8.87;;;4.60;99.90;;;;;;5038833;28;20665;-78
2024/01/23 02:21:08;;;;;;;18.57;9.53;;;4.60;99.90;;;;;;5052900;28;20246;-78
2024/01/23 02:23:56;;;;;;;16.93;9.37;;;4.60;99.90;;;;;;5051206;28;20210;-78
2024/01/23 02:26:44;;;;;;;14.17;8.87;;;4.60;99.90;;;;;;5051680;28;20214;-78
2024/01/23 02:29:31;;;;;;;16.50;8.90;;;4.60;99.90;;;;;;5051565;28;20222;-78
2024/01/23 02:32:18;;;;;;;18.57;9.53;;;4.60;99.90;;;;;;5038109;28;20191;-78
2024/01/23 02:35:06;;;;;;;17.03;9.43;;;4.60;99.90;;;;;;5051872;28;20195;-78
2024/01/23 02:37:54;;;;;;;18.13;9.17;;;4.50;99.90;;;;;;5052184;28;20269;-78
2024/01/23 02:40:42;;;;;;;16.00;8.97;;;4.50;99.90;;;;;;5052101;28;20668;-79
2024/01/23 02:43:30;;;;;;;19.00;9.60;;;4.50;99.90;;;;;;5051679;28;20233;-79
2024/01/23 02:46:17;;;;;;;17.20;8.83;;;4.50;99.90;;;;;;5036894;28;20211;-78
2024/01/23 02:49:04;;;;;;;16.77;9.10;;;4.40;99.90;;;;;;5037041;28;20589;-78
2024/01/23 02:51:55;;;;;;;16.87;9.30;;;4.40;99.90;;;;;;5052669;28;20831;-78
2024/01/23 02:54:43;;;;;;;17.73;9.27;;;4.40;99.90;;;;;;5053008;28;20202;-78
2024/01/23 02:57:31;;;;;;;16.13;8.60;;;4.40;99.90;;;;;;5052259;28;20216;-78
2024/01/23 03:00:18;;;;;;;18.93;9.20;;;4.40;99.90;;;;;;5052525;28;20192;-78
2024/01/23 03:03:09;;;;;;;18.07;8.63;;;4.40;99.90;;;;;;5037813;28;20301;-78
2024/01/23 03:05:57;;;;;;;16.90;9.03;;;4.40;99.90;;;;;;5046251;28;20787;-78
2024/01/23 03:08:44;;;;;;;16.53;8.90;;;4.40;99.90;;;;;;5053274;28;20199;-78
2024/01/23 03:11:31;;;;;;;16.37;8.70;;;4.40;99.90;;;;;;5052354;28;20897;-78
2024/01/23 03:14:18;;;;;;;15.00;8.60;;;4.40;99.90;;;;;;5037546;28;20193;-78
2024/01/23 03:17:06;;;;;;;13.13;8.17;;;4.40;99.90;;;;;;5051982;28;20212;-78
2024/01/23 03:19:53;;;;;;;14.70;8.13;;;4.40;99.90;;;;;;5051385;28;20196;-78
2024/01/23 03:22:40;;;;;;;17.60;8.60;;;4.40;99.90;;;;;;5037358;28;20202;-78
2024/01/23 03:25:28;;;;;;;15.40;8.20;;;4.50;99.90;;;;;;5052938;28;20719;-78
2024/01/23 03:28:15;;;;;;;12.90;7.07;;;4.50;99.90;;;;;;5052046;28;20216;-78
2024/01/23 03:31:03;;;;;;;15.27;7.77;;;4.50;99.90;;;;;;5052081;28;20276;-78
2024/01/23 03:33:51;;;;;;;15.60;7.83;;;4.50;99.90;;;;;;5051780;28;20195;-78
2024/01/23 03:36:38;;;;;;;13.53;7.43;;;4.50;99.90;;;;;;5041665;28;20191;-78
2024/01/23 03:39:26;;;;;;;17.17;8.23;;;4.60;99.90;;;;;;5041118;28;20673;-78
2024/01/23 03:42:14;;;;;;;16.70;7.77;;;4.60;99.90;;;;;;5040705;28;20215;-79
2024/01/23 03:45:01;;;;;;;16.27;8.17;;;4.50;99.90;;;;;;5055295;28;20250;-78
2024/01/23 03:47:49;;;;;;;15.00;7.93;;;4.50;99.90;;;;;;5055367;28;20198;-79
2024/01/23 03:50:36;;;;;;;13.37;7.80;;;4.40;99.90;;;;;;5056295;28;20220;-78
2024/01/23 03:53:23;;;;;;;18.97;8.23;;;4.30;99.90;;;;;;5056170;28;20321;-78
2024/01/23 03:56:10;;;;;;;14.77;8.30;;;4.30;99.90;;;;;;5053764;28;20238;-78
2024/01/23 03:58:58;;;;;;;16.83;7.93;;;4.30;99.90;;;;;;5054518;28;20186;-78
2024/01/23 04:01:45;;;;;;;16.23;8.23;;;4.30;99.90;;;;;;5055630;28;20249;-78
2024/01/23 04:04:32;;;;;;;15.90;8.13;;;4.20;99.90;;;;;;5054808;28;20315;-78
2024/01/23 04:07:20;;;;;;;15.87;7.73;;;4.20;99.90;;;;;;5054883;28;20379;-78
2024/01/23 04:10:09;;;;;;;15.47;7.77;;;4.20;99.90;;;;;;5055355;28;20226;-78
2024/01/23 04:12:56;;;;;;;18.23;7.70;;;4.20;99.90;;;;;;5040340;28;20214;-79
2024/01/23 04:15:43;;;;;;;14.50;7.13;;;4.10;99.90;;;;;;5054927;28;20647;-78
2024/01/23 04:18:31;;;;;;;15.23;7.70;;;4.00;99.90;;;;;;5054590;28;20227;-78
2024/01/23 04:21:18;;;;;;;13.87;7.90;;;4.00;99.90;;;;;;5054464;28;20299;-78
2024/01/23 04:24:06;;;;;;;16.03;7.67;;;4.00;99.90;;;;;;5054463;28;20278;-78
2024/01/23 04:26:54;;;;;;;16.17;8.17;;;3.90;99.90;;;;;;5040068;28;20222;-78
2024/01/23 04:29:41;;;;;;;15.40;8.10;;;3.90;99.90;;;;;;5055671;28;20287;-79
2024/01/23 04:32:29;;;;;;;16.53;8.17;;;3.90;99.90;;;;;;5054993;28;20385;-79
2024/01/23 04:35:16;;;;;;;16.40;7.90;;;3.90;99.90;;;;;;5055405;28;20218;-78
2024/01/23 04:38:04;;;;;;;17.87;8.20;;;3.90;99.90;;;;;;5039315;28;20191;-78
2024/01/23 04:40:51;;;;;;;19.23;8.00;;;3.80;99.90;;;;;;5053974;28;20190;-78
2024/01/23 04:43:39;;;;;;;16.07;8.23;;;3.80;99.90;;;;;;5054038;28;20736;-78
2024/01/23 04:46:26;;;;;;;16.40;7.80;;;3.80;99.90;;;;;;5053622;28;20205;-78
2024/01/23 04:49:13;;;;;;;18.20;7.93;;;3.80;99.90;;;;;;5055124;28;20189;-78
2024/01/23 04:52:01;;;;;;;15.80;7.93;;;3.80;99.90;;;;;;5040853;28;20273;-78
2024/01/23 04:54:48;;;;;;;15.70;8.17;;;3.70;99.90;;;;;;5054622;28;20249;-78
2024/01/23 04:57:36;;;;;;;17.40;8.60;;;3.70;99.90;;;;;;5039539;28;20240;-79
2024/01/23 05:00:23;;;;;;;15.67;8.00;;;3.70;99.90;;;;;;5024757;28;20325;-78
2024/01/23 05:03:11;;;;;;;19.40;8.17;;;3.70;99.90;;;;;;5053794;28;20194;-78
2024/01/23 05:05:58;;;;;;;18.17;8.03;;;3.70;99.90;;;;;;5054871;28;20707;-78
2024/01/23 05:08:46;;;;;;;17.30;8.50;;;3.70;99.90;;;;;;5045571;28;20199;-78
2024/01/23 05:11:33;;;;;;;22.77;9.00;;;3.70;99.90;;;;;;5053564;28;20230;-79
2024/01/23 05:14:20;;;;;;;16.70;8.27;;;3.70;99.90;;;;;;5054097;28;20191;-78
2024/01/23 05:17:08;;;;;;;20.30;8.77;;;3.70;99.90;;;;;;5053761;28;20202;-78
2024/01/23 05:19:55;;;;;;;14.77;8.57;;;3.70;99.90;;;;;;5038327;28;20198;-78
2024/01/23 05:22:42;;;;;;;18.93;8.60;;;3.70;99.90;;;;;;5038579;28;20289;-78
2024/01/23 05:25:30;;;;;;;17.47;8.87;;;3.70;99.90;;;;;;5053254;28;20186;-79
2024/01/23 05:28:17;;;;;;;16.43;9.07;;;3.70;99.90;;;;;;5053753;28;20707;-78
2024/01/23 05:31:05;;;;;;;17.30;8.93;;;3.70;99.90;;;;;;5054635;28;20218;-79
2024/01/23 05:33:52;;;;;;;19.83;8.90;;;3.60;99.90;;;;;;5039283;28;20770;-79
2024/01/23 05:36:39;;;;;;;18.83;9.37;;;3.70;99.90;;;;;;5054355;28;20201;-79
2024/01/23 05:39:28;;;;;;;19.30;8.83;;;3.60;99.90;;;;;;5054480;28;20293;-79
2024/01/23 05:42:17;;;;;;;17.20;8.83;;;3.60;99.90;;;;;;5039474;28;20297;-79
2024/01/23 05:45:06;;;;;;;22.53;9.77;;;3.60;99.90;;;;;;5053502;28;20260;-79
2024/01/23 05:47:53;;;;;;;18.80;9.33;;;3.60;99.90;;;;;;5054075;28;20195;-78
2024/01/23 05:50:40;;;;;;;20.53;9.90;;;3.60;99.90;;;;;;5053894;28;20261;-79
2024/01/23 05:53:28;;;;;;;22.03;10.17;;;3.60;99.90;;;;;;5053734;28;20280;-78
2024/01/23 05:56:15;;;;;;;20.77;9.80;;;3.60;99.90;;;;;;5051998;28;20214;-79
2024/01/23 05:59:02;;;;;;;21.77;10.03;;;3.60;99.90;;;;;;5025119;28;20286;-79
2024/01/23 06:01:50;;;;;;;22.93;9.40;;;3.60;99.90;;;;;;5038074;28;20705;-78
2024/01/23 06:04:37;;;;;;;18.83;9.77;;;3.60;99.90;;;;;;5038785;28;20258;-79
2024/01/23 06:07:25;;;;;;;17.50;10.10;;;3.60;99.90;;;;;;5052749;28;20231;-79
2024/01/23 06:10:12;;;;;;;19.23;10.13;;;3.60;99.90;;;;;;5037425;28;20214;-79
2024/01/23 06:13:00;;;;;;;21.83;10.53;;;3.50;99.90;;;;;;5052129;28;20261;-79
2024/01/23 06:15:48;;;;;;;21.10;10.03;;;3.60;99.90;;;;;;5037394;28;20209;-79
2024/01/23 06:18:35;;;;;;;20.77;10.57;;;3.50;99.90;;;;;;5052050;28;20191;-78
2024/01/23 06:21:23;;;;;;;20.03;10.00;;;3.50;99.90;;;;;;5051802;28;20210;-78
2024/01/23 06:24:11;;;;;;;24.13;10.67;;;3.50;99.90;;;;;;5052033;28;20316;-78
2024/01/23 06:26:58;;;;;;;21.23;10.37;;;3.40;99.90;;;;;;5051587;28;20319;-79
2024/01/23 06:29:46;;;;;;;20.27;10.53;;;3.40;99.90;;;;;;5051591;28;20199;-79
2024/01/23 06:32:36;;;;;;;22.03;10.90;;;3.40;99.90;;;;;;5051795;28;20192;-78
2024/01/23 06:35:23;;;;;;;22.97;11.27;;;3.40;99.90;;;;;;5051091;28;20637;-79
2024/01/23 06:38:11;;;;;;;19.13;9.97;;;3.30;99.90;;;;;;5051238;28;20206;-78
2024/01/23 06:40:58;;;;;;;21.47;10.83;;;3.40;99.90;;;;;;5052579;28;20632;-79
2024/01/23 06:43:46;;;;;;;21.50;10.67;;;3.40;99.90;;;;;;5037313;28;20321;-79
2024/01/23 06:46:33;;;;;;;21.23;10.97;;;3.40;99.90;;;;;;5051477;28;20277;-79
2024/01/23 06:49:20;;;;;;;23.07;11.10;;;3.40;99.90;;;;;;5051355;28;20193;-79
2024/01/23 06:52:08;;;;;;;22.90;11.03;;;3.40;99.90;;;;;;5051363;28;20285;-79
2024/01/23 06:54:55;;;;;;;22.63;11.70;;;3.40;99.90;;;;;;5037265;28;20206;-79
2024/01/23 06:57:42;;;;;;;21.30;10.73;;;3.30;99.90;;;;;;5051153;28;20211;-79
2024/01/23 07:00:30;;;;;;;20.57;10.90;;;3.30;99.90;;;;;;5037874;28;20233;-79
2024/01/23 07:03:17;;;;;;;22.13;10.97;;;3.30;99.90;;;;;;5051159;28;20198;-79
2024/01/23 07:06:06;;;;;;;22.13;11.17;;;3.30;99.90;;;;;;5050829;28;20238;-79
2024/01/23 07:08:53;;;;;;;20.63;10.57;;;3.30;99.90;;;;;;5037234;28;20192;-79
2024/01/23 07:11:41;;;;;;;20.63;10.80;;;3.30;99.90;;;;;;5054532;28;20252;-78
2024/01/23 07:14:28;;;;;;;20.87;10.80;;;3.40;99.90;;;;;;5040677;28;20209;-78
2024/01/23 07:17:17;;;;;;;19.53;10.57;;;3.30;99.90;;;;;;5040281;28;20747;-79
2024/01/23 07:20:06;;;;;;;20.73;10.97;;;3.30;99.90;;;;;;5040899;28;20325;-82
2024/01/23 07:22:55;;;;;;;22.20;10.43;;;3.30;99.90;;;;;;5040549;28;20207;-85
2024/01/23 07:25:43;;;;;;;20.27;10.93;;;3.30;99.90;;;;;;5041797;28;20692;-79
2024/01/23 07:28:30;;;;;;;21.33;10.83;;;3.30;99.90;;;;;;5054899;28;20280;-79
2024/01/23 07:31:39;;;;;;;22.97;11.00;;;3.50;99.90;;;;;;5054611;28;20581;-79
2024/01/23 07:34:27;;;;;;;24.27;11.30;;;3.40;99.90;;;;;;5039921;28;20200;-80
2024/01/23 07:37:14;;;;;;;20.93;10.27;;;3.50;99.90;;;;;;5040494;28;20237;-80
2024/01/23 07:40:01;;;;;;;22.27;10.83;;;3.50;99.90;;;;;;5039841;28;20198;-79
2024/01/23 07:42:48;;;;;;;19.33;10.07;;;3.60;99.90;;;;;;5040358;28;20458;-79
2024/01/23 07:45:36;;;;;;;21.03;10.17;;;3.70;99.90;;;;;;5053975;28;20276;-80
2024/01/23 07:48:23;;;;;;;21.33;10.90;;;3.90;99.90;;;;;;5054437;28;20227;-80
2024/01/23 07:51:11;;;;;;;20.33;9.77;;;4.30;99.90;;;;;;5040292;28;20691;-79
2024/01/23 07:54:01;;;;;;;19.47;9.00;;;4.60;99.90;;;;;;5040085;28;20191;-80
2024/01/23 07:56:52;;;;;;;18.40;8.30;;;4.90;99.90;;;;;;5054773;28;20297;-82
2024/01/23 07:59:40;;;;;;;15.67;8.03;;;5.20;99.90;;;;;;5054311;28;20250;-86
2024/01/23 08:02:27;;;;;;;14.97;8.40;;;5.30;99.90;;;;;;5055385;28;20268;-84
2024/01/23 08:05:14;;;;;;;14.23;8.33;;;5.30;99.90;;;;;;5040570;28;20769;-85
2024/01/23 08:08:02;;;;;;;18.17;8.00;;;5.20;99.90;;;;;;5079435;28;20210;-86
2024/01/23 08:10:51;;;;;;;15.60;7.90;;;5.10;99.90;;;;;;5066892;28;20221;-84
2024/01/23 08:13:38;;;;;;;14.67;7.63;;;5.00;99.90;;;;;;5080037;28;20229;-84
2024/01/23 08:16:26;;;;;;;13.80;7.80;;;5.10;99.90;;;;;;5079015;28;20214;-86
2024/01/23 08:19:13;;;;;;;14.83;7.37;;;5.10;99.90;;;;;;5053943;28;20290;-86
2024/01/23 08:22:01;;;;;;;15.00;7.30;;;5.50;99.90;;;;;;5053145;28;20190;-85
2024/01/23 08:24:48;;;;;;;12.20;6.23;;;5.70;99.90;;;;;;5030363;28;20274;-87
2024/01/23 08:27:36;;;;;;;12.47;6.63;;;5.50;99.90;;;;;;5053720;28;20215;-86
2024/01/23 08:30:24;;;;;;;12.17;6.67;;;5.50;99.90;;;;;;5040215;28;20222;-84
2024/01/23 08:33:18;;;;;;;13.30;6.47;;;5.40;99.90;;;;;;5049090;28;20191;-87
2024/01/23 08:36:06;;;;;;;15.47;7.10;;;5.40;99.90;;;;;;5040358;28;20227;-86
2024/01/23 08:38:53;;;;;;;12.20;6.70;;;5.40;99.90;;;;;;5054142;28;20564;-87
2024/01/23 08:41:41;;;;;;;14.60;6.60;;;5.40;99.90;;;;;;5039827;28;20345;-86
2024/01/23 08:44:29;;;;;;;13.60;6.93;;;5.40;99.90;;;;;;5053975;28;20191;-85
2024/01/23 08:47:16;;;;;;;14.47;6.30;;;5.40;99.90;;;;;;5052845;28;20196;-88
2024/01/23 08:50:05;;;;;;;13.83;7.10;;;5.30;99.90;;;;;;5053806;28;20196;-88
2024/01/23 08:52:52;;;;;;;17.10;7.00;;;5.30;99.90;;;;;;5055855;28;20197;-88
2024/01/23 08:55:39;;;;;;;14.00;6.50;;;5.50;99.90;;;;;;5052924;28;20195;-87
2024/01/23 08:58:27;;;;;;;13.33;6.70;;;5.40;99.90;;;;;;5054842;28;20191;-89
2024/01/23 09:01:16;;;;;;;13.10;6.53;;;5.40;99.90;;;;;;5053713;28;20270;-87
2024/01/23 09:04:03;;;;;;;12.37;6.47;;;5.50;99.90;;;;;;5053714;28;20198;-87
2024/01/23 09:06:51;;;;;;;13.33;6.10;;;5.50;99.90;;;;;;5053631;28;20198;-86
2024/01/23 09:09:39;;;;;;;13.07;6.13;;;5.60;99.90;;;;;;5053532;28;20215;-84
2024/01/23 09:12:29;;;;;;;13.53;6.00;;;5.70;99.90;;;;;;5055165;28;20228;-85
2024/01/23 09:15:17;;;;;;;11.87;5.70;;;5.80;99.90;;;;;;5038443;28;20193;-84
2024/01/23 09:18:04;;;;;;;11.83;5.63;;;5.90;99.90;;;;;;5054406;28;20206;-86
2024/01/23 09:20:53;;;;;;;14.77;6.13;;;6.10;99.90;;;;;;5053837;28;20192;-85
2024/01/23 09:23:40;;;;;;;13.00;5.87;;;6.10;99.90;;;;;;5038810;28;20200;-85
2024/01/23 09:26:28;;;;;;;12.13;5.70;;;6.10;99.90;;;;;;5038652;28;20227;-86
2024/01/23 09:29:15;;;;;;;15.67;5.97;;;6.10;99.90;;;;;;5038318;28;20610;-86
2024/01/23 09:32:03;;;;;;;13.23;5.97;;;6.20;99.90;;;;;;5053453;28;20224;-85
2024/01/23 09:34:51;;;;;;;13.30;5.73;;;6.20;99.90;;;;;;5053119;28;20233;-84
2024/01/23 09:37:38;;;;;;;14.03;5.73;;;6.30;99.90;;;;;;5054483;28;20199;-84
2024/01/23 09:40:26;;;;;;;11.73;5.87;;;6.40;99.90;;;;;;5038846;28;20210;-85
2024/01/23 09:43:15;;;;;;;12.07;5.37;;;6.40;99.90;;;;;;5037956;28;20299;-84
2024/01/23 09:46:08;;;;;;;10.13;5.37;;;6.50;99.90;;;;;;5052240;28;20280;-85
2024/01/23 09:48:55;;;;;;;13.47;6.20;;;6.60;99.90;;;;;;5052671;28;20194;-86
2024/01/23 09:51:46;;;;;;;11.17;5.47;;;6.70;99.90;;;;;;5037908;28;20223;-86
2024/01/23 09:54:33;;;;;;;13.07;5.27;;;7.10;99.90;;;;;;5038194;28;20650;-85
2024/01/23 09:57:21;;;;;;;10.90;5.73;;;7.10;99.90;;;;;;5053690;28;20220;-84
2024/01/23 10:00:13;;;;;;;12.50;5.50;;;6.80;99.90;;;;;;5053709;28;20335;-85
2024/01/23 10:03:01;;;;;;;10.20;5.33;;;6.80;99.90;;;;;;5037728;28;20202;-87
2024/01/23 10:05:49;;;;;;;13.73;5.37;;;6.70;99.90;;;;;;5054842;28;20228;-85
2024/01/23 10:08:36;;;;;;;13.10;5.53;;;6.80;99.90;;;;;;5057633;28;20199;-86
2024/01/23 10:11:28;;;;;;;14.43;5.80;;;6.80;99.90;;;;;;5071816;28;20263;-84
2024/01/23 10:14:16;;;;;;;13.53;5.77;;;6.70;99.90;;;;;;5057055;28;20728;-85
2024/01/23 10:17:03;;;;;;;11.43;5.37;;;6.70;99.90;;;;;;5071817;28;20204;-85
2024/01/23 10:19:51;;;;;;;12.80;5.43;;;6.60;99.90;;;;;;5071078;28;20193;-84
2024/01/23 10:22:39;;;;;;;15.40;5.90;;;6.60;99.90;;;;;;5057028;28;20258;-84
2024/01/23 10:25:28;;;;;;;16.20;6.10;;;6.50;99.90;;;;;;5072184;28;20314;-86
2024/01/23 10:28:16;;;;;;;14.53;5.50;;;6.40;99.90;;;;;;5057266;28;20354;-85
2024/01/23 10:31:04;;;;;;;17.03;6.37;;;6.50;99.90;;;;;;5072347;28;20236;-85
2024/01/23 10:33:57;;;;;;;15.67;6.40;;;6.50;99.90;;;;;;5071540;28;20201;-85
2024/01/23 10:36:45;;;;;;;12.90;5.83;;;6.50;99.90;;;;;;5057164;28;20206;-87
2024/01/23 10:39:35;;;;;;;15.30;5.80;;;6.50;99.90;;;;;;5070940;28;20200;-86
2024/01/23 10:42:23;;;;;;;12.33;5.47;;;6.70;99.90;;;;;;5071379;28;20266;-85
2024/01/23 10:45:16;;;;;;;11.67;5.73;;;6.80;99.90;;;;;;5055700;28;20198;-85
2024/01/23 10:48:06;;;;;;;15.00;5.83;;;6.80;99.90;;;;;;5071326;28;20658;-82
2024/01/23 10:51:00;;;;;;;12.10;5.67;;;6.80;99.90;;;;;;5056752;28;20234;-84
2024/01/23 10:54:01;;;;;;;15.10;6.57;;;6.80;99.90;;;;;;5070399;28;20214;-87
2024/01/23 10:56:54;;;;;;;14.90;6.50;;;6.80;99.90;;;;;;5071366;28;20699;-87
2024/01/23 10:59:45;;;;;;;12.47;5.97;;;6.70;99.90;;;;;;5071388;28;20208;-85
2024/01/23 11:02:53;;;;;;;15.37;6.40;;;6.70;99.90;;;;;;5072632;28;20201;-85
2024/01/23 11:05:52;;;;;;;12.07;6.13;;;6.70;99.90;;;;;;5057640;28;20228;-85
2024/01/23 11:08:49;;;;;;;16.40;6.57;;;6.60;99.90;;;;;;5070102;28;20201;-84
2024/01/23 11:11:46;;;;;;;15.97;6.30;;;6.50;99.90;;;;;;5056439;28;20737;-85
2024/01/23 11:14:59;;;;;;;20.37;6.90;;;6.60;99.90;;;;;;5072460;28;20198;-87
2024/01/23 11:17:53;;;;;;;15.80;6.53;;;6.40;99.90;;;;;;5071577;28;20190;-86
2024/01/23 11:20:40;;;;;;;12.63;6.87;;;6.30;99.90;;;;;;5057463;28;20201;-85
2024/01/23 11:23:27;;;;;;;12.73;6.33;;;6.20;99.90;;;;;;5071684;28;20214;-85
2024/01/23 11:26:19;;;;;;;14.83;6.83;;;6.20;99.90;;;;;;5071362;28;20355;-84
2024/01/23 11:29:12;;;;;;;13.40;7.00;;;6.10;99.90;;;;;;5070939;28;20190;-84
2024/01/23 11:32:17;;;;;;;14.67;6.90;;;6.10;99.90;;;;;;5070896;28;20222;-84
2024/01/23 11:35:07;;;;;;;19.17;7.03;;;6.10;99.90;;;;;;5056064;28;20210;-85
2024/01/23 11:37:58;;;;;;;14.90;6.50;;;6.10;99.90;;;;;;5056747;28;20279;-85
2024/01/23 11:40:53;;;;;;;16.67;7.40;;;6.00;99.90;;;;;;5056251;28;20318;-86
2024/01/23 11:43:41;;;;;;;17.87;7.00;;;6.00;99.90;;;;;;5069780;28;20301;-86
2024/01/23 11:46:28;;;;;;;14.03;6.43;;;6.00;99.90;;;;;;5069930;28;20202;-85
2024/01/23 11:49:16;;;;;;;13.73;6.60;;;6.00;99.90;;;;;;5072062;28;20522;-83
2024/01/23 11:52:05;;;;;;;16.20;7.17;;;5.90;99.90;;;;;;5070219;28;20302;-84
2024/01/23 11:54:52;;;;;;;16.93;6.67;;;6.00;99.90;;;;;;5070166;28;20287;-86
2024/01/23 11:57:40;;;;;;;15.00;6.87;;;6.00;99.90;;;;;;5073607;28;20710;-86
2024/01/23 12:00:28;;;;;;;16.57;7.70;;;6.00;99.90;;;;;;5073964;28;20799;-85
2024/01/23 12:03:20;;;;;;;19.00;7.40;;;6.10;99.90;;;;;;5073353;28;20212;-85
2024/01/23 12:06:09;;;;;;;15.90;7.43;;;6.10;99.90;;;;;;5074093;28;20248;-86
2024/01/23 12:08:56;;;;;;;17.20;7.37;;;6.10;99.90;;;;;;5074298;28;20198;-86
2024/01/23 12:11:43;;;;;;;17.43;7.17;;;6.00;99.90;;;;;;5074625;28;20305;-85
2024/01/23 12:14:31;;;;;;;14.63;7.17;;;6.00;99.90;;;;;;5062833;28;20302;-85
2024/01/23 12:17:19;;;;;;;13.93;6.80;;;5.90;99.90;;;;;;5059248;28;20193;-86
2024/01/23 12:20:09;;;;;;;14.43;6.63;;;5.90;99.90;;;;;;5059133;28;20263;-86
2024/01/23 12:22:57;;;;;;;14.57;7.13;;;5.80;99.90;;;;;;5075751;28;20200;-82
2024/01/23 12:25:45;;;;;;;19.73;7.40;;;5.80;99.90;;;;;;5060214;28;20201;-84
2024/01/23 12:28:33;;;;;;;11.50;6.10;;;5.90;99.90;;;;;;5073939;28;20573;-84
2024/01/23 12:31:21;;;;;;;12.17;6.37;;;5.80;99.90;;;;;;5060117;28;20213;-84
2024/01/23 12:34:09;;;;;;;14.80;6.17;;;5.80;99.90;;;;;;5059503;28;20193;-84
2024/01/23 12:37:00;;;;;;;12.40;5.87;;;5.80;99.90;;;;;;5060052;28;20205;-84
2024/01/23 12:39:48;;;;;;;12.00;5.57;;;5.80;99.90;;;;;;5073435;28;20652;-85
2024/01/23 12:42:39;;;;;;;11.13;5.47;;;5.80;99.90;;;;;;5059924;28;20312;-83
2024/01/23 12:45:26;;;;;;;13.60;5.77;;;5.90;99.90;;;;;;5073419;28;20191;-83
2024/01/23 12:48:15;;;;;;;12.47;5.80;;;6.10;99.90;;;;;;5073542;28;20198;-83
2024/01/23 12:51:04;;;;;;;13.73;5.40;;;6.20;99.90;;;;;;5073889;28;20680;-83
2024/01/23 12:53:51;;;;;;;15.17;5.87;;;6.40;99.90;;;;;;5074550;28;20195;-83
2024/01/23 12:56:39;;;;;;;13.17;5.80;;;6.40;99.90;;;;;;5073963;28;20216;-83
2024/01/23 12:59:26;;;;;;;11.83;5.20;;;6.50;99.90;;;;;;5059121;28;20199;-85
2024/01/23 13:02:14;;;;;;;15.03;5.50;;;6.40;99.90;;;;;;5074006;28;20694;-86
2024/01/23 13:05:02;;;;;;;12.40;5.30;;;6.50;99.90;;;;;;5074330;28;20717;-84
2024/01/23 13:07:53;;;;;;;10.20;5.33;;;6.70;99.90;;;;;;5057939;28;20198;-83
2024/01/23 13:10:41;;;;;;;14.27;5.33;;;6.90;99.90;;;;;;5073617;28;20653;-85
2024/01/23 13:13:29;;;;;;;11.23;5.53;;;7.20;99.90;;;;;;5077804;28;20604;-84
2024/01/23 13:16:17;;;;;;;11.80;5.20;;;7.60;99.90;;;;;;5060745;28;20291;-84
2024/01/23 13:19:05;;;;;;;13.83;5.97;;;7.70;99.90;;;;;;5074172;28;20211;-86
2024/01/23 13:21:53;;;;;;;14.00;5.00;;;8.00;99.90;;;;;;5077773;28;20687;-84
2024/01/23 13:24:40;;;;;;;12.93;5.20;;;8.10;99.90;;;;;;5060521;28;20189;-86
2024/01/23 13:27:28;;;;;;;11.57;4.80;;;8.00;99.90;;;;;;5072745;28;20229;-85
2024/01/23 13:30:16;;;;;;;11.03;4.60;;;8.40;99.90;;;;;;5061611;28;20233;-84
2024/01/23 13:33:05;;;;;;;10.40;4.37;;;8.30;99.90;;;;;;5073809;28;20214;-85
2024/01/23 13:35:53;;;;;;;11.20;4.93;;;8.50;99.90;;;;;;5072946;28;20194;-84
2024/01/23 13:38:41;;;;;;;11.13;4.50;;;8.50;99.90;;;;;;5057499;28;20709;-84
2024/01/23 13:41:44;;;;;;;10.80;4.53;;;8.30;99.90;;;;;;5072859;28;20320;-85
2024/01/23 13:44:31;;;;;;;10.73;4.83;;;8.00;99.90;;;;;;5058623;28;20188;-87
2024/01/23 13:47:19;;;;;;;12.57;4.87;;;8.20;99.90;;;;;;5073086;28;20223;-85
2024/01/23 13:50:17;;;;;;;12.03;4.83;;;8.30;99.90;;;;;;5074126;28;20197;-83
2024/01/23 13:53:05;;;;;;;11.50;4.40;;;8.30;99.90;;;;;;5072326;28;20597;-86
2024/01/23 13:55:52;;;;;;;10.00;4.47;;;8.20;99.90;;;;;;5073296;28;20227;-87
2024/01/23 13:58:40;;;;;;;12.37;4.60;;;7.80;99.90;;;;;;5057335;28;20276;-87
2024/01/23 14:01:27;;;;;;;12.43;4.70;;;7.50;99.90;;;;;;5071727;28;20323;-87
2024/01/23 14:04:14;;;;;;;10.30;4.67;;;7.40;99.90;;;;;;5071262;28;20255;-84
2024/01/23 14:07:04;;;;;;;11.70;4.70;;;7.00;99.90;;;;;;5072004;28;20277;-84
2024/01/23 14:09:52;;;;;;;12.90;4.80;;;6.90;99.90;;;;;;5058315;28;20201;-83
2024/01/23 14:12:47;;;;;;;9.70;5.10;;;6.80;99.90;;;;;;5057415;28;20227;-86
2024/01/23 14:15:35;;;;;;;12.47;5.30;;;6.70;99.90;;;;;;5056728;28;20480;-86
2024/01/23 14:18:22;;;;;;;14.40;4.97;;;6.60;99.90;;;;;;5057205;28;20571;-88
2024/01/23 14:21:11;;;;;;;9.23;4.43;;;6.60;99.90;;;;;;5057746;28;20211;-85
2024/01/23 14:24:00;;;;;;;11.23;5.20;;;6.60;99.90;;;;;;5072057;28;20228;-86
2024/01/23 14:26:48;;;;;;;14.27;4.93;;;6.70;99.90;;;;;;5072246;28;20212;-87
2024/01/23 14:29:36;;;;;;;11.40;4.90;;;6.60;99.90;;;;;;5056812;28;20223;-85
2024/01/23 14:32:24;;;;;;;12.07;5.03;;;6.50;99.90;;;;;;5072052;28;20213;-85
2024/01/23 14:35:15;;;;;;;10.90;5.60;;;6.30;99.90;;;;;;5073409;28;20201;-84